Have a Safe July 4th! 

Flight Track Log - Related Links

Times and Time Zones

All times are in EDT time to prevent confusion due to time zone crossing. See the DLH1142 flight status page for this flight to view local times or setup timezone preferences in your user account.

Time Position Orientation Groundspeed Altitude Reporting Facility
EDT Latitude Longitude Course Direction KTS MPH feet Rate Location/Type
Sun 05:57:32 AM 49.8098 8.0874 233° Southwest  Level Estimated
Sun 05:58:32 AM 49.7482 7.9591 233° Southwest  Level Estimated
Sun 05:59:32 AM 49.6864 7.8312 233° Southwest  Level Estimated
Sun 06:00:32 AM 49.6245 7.7036 233° Southwest  Level Estimated
Sun 06:01:32 AM 49.5624 7.5764 233° Southwest  Level Estimated
Sun 06:02:32 AM 49.5003 7.4494 233° Southwest  Level Estimated
Sun 06:03:32 AM 49.4379 7.3228 233° Southwest  Level Estimated
Sun 06:04:32 AM 49.3755 7.1965 233° Southwest  Level Estimated
Sun 06:05:32 AM 49.3128 7.0705 233° Southwest  Level Estimated
Sun 06:06:32 AM 49.2501 6.9449 233° Southwest  Level Estimated
Sun 06:07:32 AM 49.1872 6.8195 232° Southwest  Level Estimated
Sun 06:08:32 AM 49.1242 6.6945 232° Southwest  Level Estimated
Sun 06:09:32 AM 49.0611 6.5698 232° Southwest  Level Estimated
Sun 06:10:32 AM 48.9978 6.4454 232° Southwest  Level Estimated
Sun 06:11:32 AM 48.9344 6.3213 232° Southwest  Level Estimated
Sun 06:12:32 AM 48.8708 6.1976 232° Southwest  Level Estimated
Sun 06:13:32 AM 48.8071 6.0742 232° Southwest  Level Estimated
Sun 06:14:32 AM 48.7433 5.9510 232° Southwest  Level Estimated
Sun 06:15:32 AM 48.6794 5.8282 232° Southwest  Level Estimated
Sun 06:16:32 AM 48.6153 5.7057 232° Southwest  Level Estimated
Sun 06:17:32 AM 48.5511 5.5835 231° Southwest  Level Estimated
Sun 06:18:32 AM 48.4868 5.4616 231° Southwest  Level Estimated
Sun 06:19:32 AM 48.4223 5.3401 231° Southwest  Level Estimated
Sun 06:20:32 AM 48.3577 5.2188 231° Southwest  Level Estimated
Sun 06:21:32 AM 48.2930 5.0978 231° Southwest  Level Estimated
Sun 06:22:32 AM 48.2282 4.9772 231° Southwest  Level Estimated
Sun 06:23:32 AM 48.1632 4.8569 231° Southwest  Level Estimated
Sun 06:24:32 AM 48.0981 4.7368 231° Southwest  Level Estimated
Sun 06:25:32 AM 48.0329 4.6171 231° Southwest  Level Estimated
Sun 06:26:32 AM 47.9676 4.4976 231° Southwest  Level Estimated
Sun 06:27:32 AM 47.9021 4.3785 231° Southwest  Level Estimated
Sun 06:28:32 AM 47.8365 4.2597 231° Southwest  Level Estimated
Sun 06:29:32 AM 47.7708 4.1411 230° Southwest  Level Estimated
Sun 06:30:32 AM 47.7050 4.0229 230° Southwest  Level Estimated
Sun 06:31:32 AM 47.6390 3.9050 230° Southwest  Level Estimated
Sun 06:32:32 AM 47.5730 3.7874 230° Southwest  Level Estimated
Sun 06:33:32 AM 47.5068 3.6700 230° Southwest  Level Estimated
Sun 06:34:32 AM 47.4405 3.5530 230° Southwest  Level Estimated
Sun 06:35:32 AM 47.3740 3.4362 230° Southwest  Level Estimated
Sun 06:36:32 AM 47.3075 3.3198 230° Southwest  Level Estimated
Sun 06:37:32 AM 47.2408 3.2036 230° Southwest  Level Estimated
Sun 06:38:32 AM 47.1740 3.0877 230° Southwest  Level Estimated
Sun 06:39:32 AM 47.1071 2.9722 230° Southwest  Level Estimated
Sun 06:40:32 AM 47.0401 2.8569 229° Southwest  Level Estimated
Sun 06:41:32 AM 46.9730 2.7419 229° Southwest  Level Estimated
Sun 06:42:32 AM 46.9057 2.6272 229° Southwest  Level Estimated
Sun 06:43:32 AM 46.8384 2.5127 229° Southwest  Level Estimated
Sun 06:44:32 AM 46.7709 2.3986 229° Southwest  Level Estimated
Sun 06:45:32 AM 46.7033 2.2848 229° Southwest  Level Estimated
Sun 06:46:32 AM 46.6356 2.1712 229° Southwest  Level Estimated
Sun 06:47:32 AM 46.5678 2.0579 229° Southwest  Level Estimated
Sun 06:48:32 AM 46.4999 1.9449 229° Southwest  Level Estimated
Sun 06:49:32 AM 46.4318 1.8322 229° Southwest  Level Estimated
Sun 06:50:32 AM 46.3637 1.7198 229° Southwest  Level Estimated
Sun 06:51:32 AM 46.2954 1.6077 229° Southwest  Level Estimated
Sun 06:52:32 AM 46.2271 1.4958 228° Southwest  Level Estimated
Sun 06:53:32 AM 46.1586 1.3842 228° Southwest  Level Estimated
Sun 06:54:32 AM 46.0900 1.2729 228° Southwest  Level Estimated
Sun 06:55:32 AM 46.0213 1.1618 228° Southwest  Level Estimated
Sun 06:56:32 AM 45.9525 1.0511 228° Southwest  Level Estimated
Sun 06:57:32 AM 45.8836 0.9406 228° Southwest  Level Estimated
Sun 06:58:32 AM 45.8146 0.8304 228° Southwest  Level Estimated
Sun 06:59:32 AM 45.7455 0.7204 228° Southwest  Level Estimated
Sun 07:00:32 AM 45.6763 0.6108 228° Southwest  Level Estimated
Sun 07:01:32 AM 45.6069 0.5014 228° Southwest  Level Estimated
Sun 07:02:32 AM 45.5375 0.3922 228° Southwest  Level Estimated
Sun 07:03:32 AM 45.4680 0.2834 228° Southwest  Level Estimated
Sun 07:04:32 AM 45.3983 0.1748 228° Southwest  Level Estimated
Sun 07:05:32 AM 45.3286 0.0665 227° Southwest  Level Estimated
Sun 07:06:32 AM 45.2588 -0.0416 227° Southwest  Level Estimated
Sun 07:07:32 AM 45.1888 -0.1494 227° Southwest  Level Estimated
Sun 07:08:32 AM 45.1188 -0.2569 227° Southwest  Level Estimated
Sun 07:09:32 AM 45.0486 -0.3642 227° Southwest  Level Estimated
Sun 07:10:32 AM 44.9784 -0.4712 227° Southwest  Level Estimated
Sun 07:11:32 AM 44.9080 -0.5779 227° Southwest  Level Estimated
Sun 07:12:32 AM 44.8376 -0.6844 227° Southwest  Level Estimated
Sun 07:13:32 AM 44.7671 -0.7906 227° Southwest  Level Estimated
Sun 07:14:32 AM 44.6964 -0.8966 227° Southwest  Level Estimated
Sun 07:15:32 AM 44.6257 -1.0023 227° Southwest  Level Estimated
Sun 07:16:32 AM 44.5548 -1.1077 227° Southwest  Level Estimated
Sun 07:17:32 AM 44.4839 -1.2129 227° Southwest  Level Estimated
Sun 07:18:32 AM 44.4129 -1.3178 226° Southwest  Level Estimated
Sun 07:19:32 AM 44.3380 -1.4280 226° Southwest  Level Estimated
Sun 07:20:32 AM 44.2630 -1.5379 226° Southwest  Level Estimated
Sun 07:21:32 AM 44.1880 -1.6475 226° Southwest  Level Estimated
Sun 07:22:32 AM 44.1128 -1.7568 226° Southwest  Level Estimated
Sun 07:23:32 AM 44.0375 -1.8659 226° Southwest  Level Estimated
Sun 07:24:32 AM 43.9621 -1.9747 226° Southwest  Level Estimated
Sun 07:25:32 AM 43.8866 -2.0832 226° Southwest  Level Estimated
Sun 07:26:32 AM 43.8110 -2.1914 226° Southwest  Level Estimated
Sun 07:27:32 AM 43.7353 -2.2994 226° Southwest  Level Estimated
Sun 07:28:32 AM 43.6595 -2.4070 226° Southwest  Level Estimated
Sun 07:29:32 AM 43.5836 -2.5145 226° Southwest  Level Estimated
Sun 07:30:32 AM 43.5076 -2.6216 226° Southwest  Level Estimated
Sun 07:31:32 AM 43.4315 -2.7285 226° Southwest  Level Estimated
Sun 07:32:32 AM 43.3553 -2.8351 225° Southwest  Level Estimated
Sun 07:33:32 AM 43.2790 -2.9414 45° Northeast  Level Estimated
Sun 07:34:32 AM 43.3553 -2.8351 225° Southwest  Level Estimated
Sun 07:35:32 AM 43.2790 -2.9414 45° Northeast  Level Estimated
Sun 07:36:32 AM 43.3553 -2.8351 225° Southwest  Level Estimated
Sun 07:37:32 AM 43.2790 -2.9414 45° Northeast  Level Estimated
Sun 07:38:32 AM 43.3553 -2.8351 225° Southwest  Level Estimated
Sun 07:39:32 AM 43.2790 -2.9414 45° Northeast  Level Estimated
Sun 07:40:32 AM 43.3553 -2.8351 225° Southwest  Level Estimated
Sun 07:41:32 AM 43.2790 -2.9414 45° Northeast  Level Estimated
Sun 07:42:32 AM 43.3553 -2.8351 225° Southwest  Level Estimated
Sun 07:43:32 AM 43.2790 -2.9414 45° Northeast  Level Estimated
Sun 07:44:32 AM 43.3553 -2.8351 45° Northeast  Level Estimated

Login

Don't have an account? Register now (free) for customized features, flight alerts, and more!